createdAt,value
2018-02-13T00:01:48.947Z,3.70
2018-02-13T00:04:16.649Z,3.80
2018-02-13T00:06:44.309Z,3.70
2018-02-13T00:09:12.035Z,3.90
2018-02-13T00:11:39.742Z,3.80
2018-02-13T00:14:08.225Z,3.80
2018-02-13T00:16:36.760Z,3.90
2018-02-13T00:19:04.293Z,3.90
2018-02-13T00:21:32.838Z,3.80
2018-02-13T00:24:00.501Z,3.80
2018-02-13T00:26:28.227Z,3.80
2018-02-13T00:28:55.831Z,3.70
2018-02-13T00:31:24.310Z,3.80
2018-02-13T00:33:52.617Z,3.80
2018-02-13T00:36:20.353Z,3.80
2018-02-13T00:38:48.890Z,3.80
2018-02-13T00:41:16.653Z,3.90
2018-02-13T00:43:45.032Z,3.80
2018-02-13T00:46:12.694Z,3.70
2018-02-13T00:48:40.355Z,3.80
2018-02-13T00:51:08.065Z,3.80
2018-02-13T00:53:36.703Z,3.80
2018-02-13T00:56:04.301Z,3.80
2018-02-13T00:58:31.965Z,3.80
2018-02-13T01:01:00.514Z,3.80
2018-02-13T01:03:28.271Z,3.80
2018-02-13T01:05:56.040Z,3.70
2018-02-13T01:08:23.741Z,3.80
2018-02-13T01:10:52.383Z,3.80
2018-02-13T01:13:19.889Z,3.80
2018-02-13T01:15:48.320Z,3.80
2018-02-13T01:18:15.982Z,3.70
2018-02-13T01:20:43.502Z,3.70
2018-02-13T01:23:11.308Z,3.60
2018-02-13T01:25:39.934Z,3.80
2018-02-13T01:28:07.586Z,3.80
2018-02-13T01:30:35.227Z,3.70
2018-02-13T01:33:02.790Z,3.70
2018-02-13T01:35:30.433Z,3.60
2018-02-13T01:37:57.982Z,3.70
2018-02-13T01:40:25.756Z,3.80
2018-02-13T01:42:53.458Z,3.80
2018-02-13T01:45:21.041Z,3.70
2018-02-13T01:47:48.742Z,3.60
2018-02-13T01:50:25.457Z,3.60
2018-02-13T01:52:53.178Z,3.60
2018-02-13T01:55:20.839Z,3.60
2018-02-13T01:57:48.449Z,3.70
2018-02-13T02:00:16.982Z,3.70
2018-02-13T02:02:44.685Z,3.60
2018-02-13T02:05:13.228Z,3.50
2018-02-13T02:07:40.997Z,3.50
2018-02-13T02:10:08.694Z,3.50
2018-02-13T02:12:37.237Z,3.50
2018-02-13T02:15:04.942Z,3.50
2018-02-13T02:17:33.482Z,3.40
2018-02-13T02:20:01.185Z,3.40
2018-02-13T02:22:29.624Z,3.50
2018-02-13T02:24:57.285Z,3.50
2018-02-13T02:27:24.947Z,3.50
2018-02-13T02:29:52.654Z,3.60
2018-02-13T02:32:21.034Z,3.40
2018-02-13T02:34:49.468Z,3.50
2018-02-13T02:37:17.237Z,3.40
2018-02-13T02:39:44.996Z,3.40
2018-02-13T02:42:12.658Z,3.30
2018-02-13T02:44:40.525Z,3.40
2018-02-13T02:47:08.094Z,3.40
2018-02-13T02:49:35.848Z,3.40
2018-02-13T02:52:03.612Z,3.40
2018-02-13T02:54:31.378Z,3.50
2018-02-13T02:56:59.243Z,3.30
2018-02-13T02:59:26.910Z,3.40
2018-02-13T03:01:54.566Z,3.40
2018-02-13T03:04:22.102Z,3.20
2018-02-13T03:06:49.710Z,3.10
2018-02-13T03:09:17.551Z,3.10
2018-02-13T03:11:45.085Z,3.20
2018-02-13T03:14:12.918Z,3.20
2018-02-13T03:16:41.355Z,3.10
2018-02-13T03:19:08.950Z,3.10
2018-02-13T03:21:36.450Z,3.20
2018-02-13T03:24:04.238Z,3.10
2018-02-13T03:26:32.002Z,3.20
2018-02-13T03:28:59.619Z,3.20
2018-02-13T03:31:27.998Z,3.20
2018-02-13T03:33:56.522Z,3.10
2018-02-13T03:36:24.389Z,3.10
2018-02-13T03:38:52.153Z,3.00
2018-02-13T03:41:19.815Z,3.00
2018-02-13T03:43:47.398Z,3.10
2018-02-13T03:46:15.084Z,3.20
2018-02-13T03:48:43.562Z,3.10
2018-02-13T03:51:11.853Z,3.10
2018-02-13T03:53:39.490Z,3.00
2018-02-13T03:56:07.324Z,3.10
2018-02-13T03:58:35.026Z,3.00
2018-02-13T04:01:03.566Z,3.00
2018-02-13T04:03:31.228Z,3.00
2018-02-13T04:05:58.890Z,3.00
2018-02-13T04:08:26.658Z,2.90
2018-02-13T04:10:54.418Z,2.90
2018-02-13T04:13:21.927Z,2.80
2018-02-13T04:15:50.402Z,2.80
2018-02-13T04:18:18.939Z,2.80
2018-02-13T04:20:46.642Z,2.70
2018-02-13T04:23:15.081Z,2.90
2018-02-13T04:25:42.744Z,2.90
2018-02-13T04:28:10.411Z,2.90
2018-02-13T04:30:37.921Z,2.80
2018-02-13T04:33:06.401Z,2.80
2018-02-13T04:35:34.925Z,2.90
2018-02-13T04:38:02.735Z,2.80
2018-02-13T04:40:31.273Z,2.90
2018-02-13T04:42:58.782Z,2.90
2018-02-13T04:45:27.081Z,2.90
2018-02-13T04:47:54.873Z,2.90
2018-02-13T04:50:22.574Z,2.80
2018-02-13T04:52:51.015Z,2.80
2018-02-13T04:55:18.710Z,2.80
2018-02-13T04:57:46.543Z,2.70
2018-02-13T05:00:14.309Z,2.80
2018-02-13T05:02:41.969Z,2.80
2018-02-13T05:05:09.673Z,2.70
2018-02-13T05:07:38.082Z,2.80
2018-02-13T05:10:05.706Z,2.70
2018-02-13T05:12:33.435Z,2.80
2018-02-13T05:15:01.142Z,2.90
2018-02-13T05:17:29.680Z,2.80
2018-02-13T05:19:57.444Z,2.80
2018-02-13T05:22:25.145Z,2.80
2018-02-13T05:24:53.587Z,2.80
2018-02-13T05:27:21.169Z,2.80
2018-02-13T05:29:49.014Z,2.70
2018-02-13T05:32:16.717Z,2.60
2018-02-13T05:34:45.034Z,2.50
2018-02-13T05:37:12.585Z,2.50
2018-02-13T05:39:40.276Z,2.60
2018-02-13T05:42:07.794Z,2.60
2018-02-13T05:44:35.597Z,2.60
2018-02-13T05:47:03.302Z,2.60
2018-02-13T05:49:31.615Z,2.70
2018-02-13T05:51:59.214Z,2.70
2018-02-13T05:54:26.757Z,2.70
2018-02-13T05:56:54.421Z,2.60
2018-02-13T05:59:22.079Z,2.50
2018-02-13T06:01:49.678Z,2.50
2018-02-13T06:04:17.237Z,2.50
2018-02-13T06:06:45.722Z,2.60
2018-02-13T06:09:14.159Z,2.50
2018-02-13T06:11:41.922Z,2.50
2018-02-13T06:14:09.586Z,2.60
2018-02-13T06:16:37.247Z,2.50
2018-02-13T06:19:04.878Z,2.60
2018-02-13T06:21:32.466Z,2.60
2018-02-13T06:24:00.232Z,2.50
2018-02-13T06:26:27.776Z,2.50
2018-02-13T06:28:55.555Z,2.50
2018-02-13T06:31:23.113Z,2.60
2018-02-13T06:33:50.818Z,2.50
2018-02-13T06:36:19.174Z,2.50
2018-02-13T06:38:46.698Z,2.50
2018-02-13T06:41:14.580Z,2.60
2018-02-13T06:43:42.344Z,2.50
2018-02-13T06:46:09.950Z,2.50
2018-02-13T06:48:38.334Z,2.40
2018-02-13T06:51:05.839Z,2.40
2018-02-13T06:53:33.382Z,2.40
2018-02-13T06:56:00.922Z,2.50
2018-02-13T06:58:28.534Z,2.50
2018-02-13T07:00:56.077Z,2.40
2018-02-13T07:03:23.945Z,2.50
2018-02-13T07:05:51.485Z,2.40
2018-02-13T07:08:19.098Z,2.50
2018-02-13T07:10:46.931Z,2.40
2018-02-13T07:13:14.634Z,2.40
2018-02-13T07:15:42.954Z,2.40
2018-02-13T07:18:10.546Z,2.40
2018-02-13T07:20:38.138Z,2.50
2018-02-13T07:23:06.673Z,2.70
2018-02-13T07:25:34.335Z,2.70
2018-02-13T07:28:01.929Z,2.70
2018-02-13T07:30:29.828Z,2.60
2018-02-13T07:32:57.626Z,2.60
2018-02-13T07:35:25.330Z,2.60
2018-02-13T07:37:53.608Z,2.60
2018-02-13T07:40:22.011Z,2.60
2018-02-13T07:42:49.724Z,2.60
2018-02-13T07:45:17.369Z,2.70
2018-02-13T07:47:45.169Z,2.70
2018-02-13T07:50:12.999Z,2.80
2018-02-13T07:52:40.702Z,2.70
2018-02-13T07:55:09.186Z,2.70
2018-02-13T07:57:37.469Z,2.70
2018-02-13T08:00:06.103Z,2.70
2018-02-13T08:02:33.906Z,2.70
2018-02-13T08:05:02.186Z,2.90
2018-02-13T08:07:30.497Z,2.90
2018-02-13T08:09:58.042Z,2.90
2018-02-13T08:12:25.743Z,3.00
2018-02-13T08:14:53.712Z,3.00
2018-02-13T08:17:21.226Z,3.00
2018-02-13T08:19:49.854Z,3.30
2018-02-13T08:22:17.720Z,3.30
2018-02-13T08:24:45.425Z,3.40
2018-02-13T08:27:13.902Z,3.60
2018-02-13T08:29:42.386Z,3.70
2018-02-13T08:32:10.734Z,3.80
2018-02-13T08:34:38.426Z,3.80
2018-02-13T08:37:06.742Z,4.00
2018-02-13T08:39:35.282Z,4.10
2018-02-13T08:42:03.827Z,4.20
2018-02-13T08:44:31.693Z,4.20
2018-02-13T08:46:59.234Z,4.20
2018-02-13T08:49:26.914Z,4.30
2018-02-13T08:51:54.410Z,4.30
2018-02-13T08:54:22.955Z,4.40
2018-02-13T08:56:50.494Z,4.40
2018-02-13T08:59:18.217Z,4.40
2018-02-13T09:01:46.703Z,4.50
2018-02-13T09:04:15.239Z,4.70
2018-02-13T09:06:42.757Z,4.70
2018-02-13T09:09:11.179Z,4.80
2018-02-13T09:11:38.886Z,4.80
2018-02-13T09:14:07.320Z,4.80
2018-02-13T09:16:35.026Z,4.80
2018-02-13T09:19:03.394Z,5.00
2018-02-13T09:21:31.573Z,5.00
2018-02-13T09:24:00.057Z,5.00
2018-02-13T09:26:28.495Z,5.00
2018-02-13T09:28:56.206Z,5.00
2018-02-13T09:31:24.746Z,5.10
2018-02-13T09:33:52.607Z,5.00
2018-02-13T09:36:20.269Z,5.10
2018-02-13T09:38:47.814Z,5.10
2018-02-13T09:41:16.295Z,5.10
2018-02-13T09:43:43.982Z,5.20
2018-02-13T09:46:11.837Z,5.10
2018-02-13T09:48:39.500Z,5.10
2018-02-13T09:51:07.057Z,5.10
2018-02-13T09:53:34.823Z,5.10
2018-02-13T09:56:02.526Z,5.20
2018-02-13T09:58:31.014Z,5.20
2018-02-13T10:00:58.666Z,5.20
2018-02-13T10:03:26.970Z,5.20
2018-02-13T10:05:54.597Z,5.20
2018-02-13T10:08:22.174Z,5.20
2018-02-13T10:10:50.604Z,5.30
2018-02-13T10:13:18.473Z,5.20
2018-02-13T10:15:46.024Z,5.30
2018-02-13T10:18:13.734Z,5.30
2018-02-13T10:20:42.277Z,5.30
2018-02-13T10:23:10.142Z,5.30
2018-02-13T10:25:37.803Z,5.30
2018-02-13T10:28:05.465Z,5.40
2018-02-13T10:30:33.171Z,5.30
2018-02-13T10:33:01.650Z,5.30
2018-02-13T10:35:30.190Z,5.40
2018-02-13T10:37:57.954Z,5.40
2018-02-13T10:40:25.658Z,5.40
2018-02-13T10:42:54.200Z,5.50
2018-02-13T10:45:21.710Z,5.40
2018-02-13T10:47:50.240Z,5.40
2018-02-13T10:50:18.004Z,5.40
2018-02-13T10:52:45.665Z,5.50
2018-02-13T10:55:13.327Z,5.60
2018-02-13T10:57:40.862Z,5.60
2018-02-13T11:00:08.650Z,5.60
2018-02-13T11:02:36.358Z,5.60
2018-02-13T11:05:04.837Z,5.50
2018-02-13T11:07:33.274Z,5.50
2018-02-13T11:10:01.038Z,5.50
2018-02-13T11:12:28.705Z,5.50
2018-02-13T11:14:56.669Z,5.50
2018-02-13T11:17:24.535Z,5.60
2018-02-13T11:19:52.207Z,5.60
2018-02-13T11:22:19.902Z,5.70
2018-02-13T11:24:47.567Z,5.70
2018-02-13T11:27:16.000Z,5.80
2018-02-13T11:29:43.707Z,5.80
2018-02-13T11:32:12.143Z,5.90
2018-02-13T11:34:39.862Z,5.90
2018-02-13T11:37:08.286Z,6.00
2018-02-13T11:39:36.050Z,6.00
2018-02-13T11:42:03.815Z,6.00
2018-02-13T11:44:31.475Z,6.00
2018-02-13T11:46:59.177Z,6.10
2018-02-13T11:49:27.668Z,6.10
2018-02-13T11:51:56.202Z,6.10
2018-02-13T11:54:24.006Z,6.10
2018-02-13T11:56:52.497Z,6.30
2018-02-13T11:59:20.150Z,6.20
2018-02-13T12:01:48.589Z,6.30
2018-02-13T12:04:16.297Z,6.30
2018-02-13T12:06:44.733Z,6.30
2018-02-13T12:09:12.495Z,6.30
2018-02-13T12:11:40.205Z,6.30
2018-02-13T12:14:08.723Z,6.30
2018-02-13T12:16:36.333Z,6.30
2018-02-13T12:19:03.962Z,6.40
2018-02-13T12:21:31.622Z,6.40
2018-02-13T12:23:59.326Z,6.40
2018-02-13T12:26:27.010Z,6.40
2018-02-13T12:28:54.812Z,6.30
2018-02-13T12:31:22.325Z,6.30
2018-02-13T12:33:50.794Z,6.40
2018-02-13T12:36:19.273Z,6.40
2018-02-13T12:38:47.098Z,6.40
2018-02-13T12:41:14.682Z,6.40
2018-02-13T12:43:42.421Z,6.40
2018-02-13T12:46:10.034Z,6.50
2018-02-13T12:48:38.506Z,6.50
2018-02-13T12:51:07.045Z,6.50
2018-02-13T12:53:34.754Z,6.40
2018-02-13T12:56:03.289Z,6.50
2018-02-13T12:58:30.994Z,6.50
2018-02-13T13:00:58.594Z,6.40
2018-02-13T13:03:26.202Z,6.40
2018-02-13T13:05:53.936Z,6.40
2018-02-13T13:08:21.446Z,6.40
2018-02-13T13:10:49.922Z,6.40
2018-02-13T13:13:18.286Z,6.40
2018-02-13T13:15:45.794Z,6.40
2018-02-13T13:18:13.473Z,6.50
2018-02-13T13:20:41.178Z,6.50
2018-02-13T13:23:09.657Z,6.60
2018-02-13T13:25:37.266Z,6.60
2018-02-13T13:28:04.832Z,6.60
2018-02-13T13:30:32.396Z,6.70
2018-02-13T13:32:59.943Z,6.70
2018-02-13T13:35:27.515Z,6.70
2018-02-13T13:37:54.966Z,6.60
2018-02-13T13:40:22.423Z,6.60
2018-02-13T13:42:49.988Z,6.60
2018-02-13T13:45:17.535Z,6.60
2018-02-13T13:47:45.101Z,6.70
2018-02-13T13:50:12.666Z,6.70
2018-02-13T13:52:40.225Z,6.70
2018-02-13T13:55:07.766Z,6.80
2018-02-13T13:57:35.548Z,6.80
2018-02-13T14:00:03.107Z,6.70
2018-02-13T14:02:30.655Z,6.70
2018-02-13T14:04:59.147Z,6.60
2018-02-13T14:07:26.695Z,6.60
2018-02-13T14:09:54.255Z,6.60
2018-02-13T14:12:21.810Z,6.60
2018-02-13T14:14:49.348Z,6.70
2018-02-13T14:17:20.426Z,6.50
2018-02-13T14:19:48.082Z,6.50
2018-02-13T14:22:15.646Z,6.50
2018-02-13T14:24:43.196Z,6.50
2018-02-13T14:27:10.765Z,6.50
2018-02-13T14:29:38.324Z,6.40
2018-02-13T14:32:05.872Z,6.40
2018-02-13T14:34:33.432Z,6.30
2018-02-13T14:37:00.991Z,6.40
2018-02-13T14:39:28.461Z,6.30
2018-02-13T14:41:56.019Z,6.40
2018-02-13T14:44:23.566Z,6.30
2018-02-13T14:46:51.342Z,6.30
2018-02-13T14:49:18.891Z,6.30
2018-02-13T14:51:46.468Z,6.20
2018-02-13T14:54:13.883Z,6.20
2018-02-13T14:56:42.183Z,6.20
2018-02-13T14:59:09.752Z,6.20
2018-02-13T15:01:37.302Z,6.30
2018-02-13T15:04:05.076Z,6.30
2018-02-13T15:06:32.634Z,6.30
2018-02-13T15:09:00.399Z,6.30
2018-02-13T15:11:27.952Z,6.30
2018-02-13T15:13:55.495Z,6.30
2018-02-13T15:16:23.691Z,6.30
2018-02-13T15:18:51.240Z,6.30
2018-02-13T15:21:18.804Z,6.30
2018-02-13T15:23:46.471Z,6.40
2018-02-13T15:26:14.031Z,6.30
2018-02-13T15:28:41.463Z,6.30
2018-02-13T15:31:09.998Z,6.30
2018-02-13T15:33:37.630Z,6.30
2018-02-13T15:36:05.189Z,6.30
2018-02-13T15:38:32.748Z,6.30
2018-02-13T15:41:00.207Z,6.30
2018-02-13T15:43:27.969Z,6.20
2018-02-13T15:45:55.836Z,6.30
2018-02-13T15:48:23.395Z,6.30
2018-02-13T15:50:50.954Z,6.20
2018-02-13T15:53:18.508Z,6.20
2018-02-13T15:55:45.955Z,6.20
2018-02-13T15:58:13.518Z,6.20
2018-02-13T16:00:41.079Z,6.10
2018-02-13T16:03:08.639Z,6.10
2018-02-13T16:05:36.198Z,6.10
2018-02-13T16:08:03.755Z,6.10
2018-02-13T16:10:31.428Z,6.00
2018-02-13T16:12:58.975Z,6.00
2018-02-13T16:15:26.535Z,6.10
2018-02-13T16:17:54.311Z,6.10
2018-02-13T16:20:21.859Z,6.00
2018-02-13T16:22:49.430Z,6.00
2018-02-13T16:25:16.989Z,5.90
2018-02-13T16:27:44.444Z,6.00
2018-02-13T16:30:11.871Z,5.90
2018-02-13T16:32:40.162Z,5.90
2018-02-13T16:35:07.729Z,5.90
2018-02-13T16:37:35.287Z,5.80
2018-02-13T16:40:02.949Z,5.80
2018-02-13T16:42:30.518Z,5.80
2018-02-13T16:44:58.072Z,5.80
2018-02-13T16:47:25.623Z,5.70
2018-02-13T16:49:53.195Z,5.70
2018-02-13T16:52:20.782Z,5.70
2018-02-13T16:54:48.263Z,5.60
2018-02-13T16:57:15.873Z,5.60
2018-02-13T16:59:43.432Z,5.60
2018-02-13T17:02:10.992Z,5.60
2018-02-13T17:04:38.551Z,5.60
2018-02-13T17:07:06.099Z,5.60
2018-02-13T17:09:33.660Z,5.50
2018-02-13T17:12:01.292Z,5.50
2018-02-13T17:14:28.774Z,5.50
2018-02-13T17:16:56.435Z,5.50
2018-02-13T17:19:23.915Z,5.40
2018-02-13T17:21:51.347Z,5.40
2018-02-13T17:24:18.911Z,5.40
2018-02-13T17:26:46.466Z,5.40
2018-02-13T17:29:14.042Z,5.40
2018-02-13T17:31:41.587Z,5.40
2018-02-13T17:34:09.146Z,5.40
2018-02-13T17:36:36.720Z,5.40
2018-02-13T17:39:04.282Z,5.30
2018-02-13T17:41:31.715Z,5.40
2018-02-13T17:43:59.191Z,5.40
2018-02-13T17:46:26.849Z,5.30
2018-02-13T17:48:54.403Z,5.20
2018-02-13T17:51:21.959Z,5.30
2018-02-13T17:53:49.534Z,5.20
2018-02-13T17:56:17.079Z,5.20
2018-02-13T17:58:44.645Z,5.30
2018-02-13T18:01:12.315Z,5.20
2018-02-13T18:03:39.860Z,5.20
2018-02-13T18:06:07.430Z,5.20
2018-02-13T18:08:34.990Z,5.20
2018-02-13T18:11:02.539Z,5.20
2018-02-13T18:13:29.992Z,5.00
2018-02-13T18:15:57.555Z,5.00
2018-02-13T18:18:25.386Z,5.00
2018-02-13T18:20:52.889Z,5.00
2018-02-13T18:23:20.544Z,5.00
2018-02-13T18:25:48.199Z,5.00
2018-02-13T18:28:15.772Z,5.00
2018-02-13T18:30:43.315Z,4.80
2018-02-13T18:33:10.875Z,4.80
2018-02-13T18:35:38.435Z,4.80
2018-02-13T18:38:05.990Z,4.80
2018-02-13T18:40:33.418Z,4.80
2018-02-13T18:43:00.854Z,4.90
2018-02-13T18:45:28.584Z,4.70
2018-02-13T18:47:56.143Z,4.70
2018-02-13T18:50:23.691Z,4.70
2018-02-13T18:55:19.768Z,4.60
2018-02-13T18:57:47.298Z,4.50
2018-02-13T19:00:14.860Z,4.60
2018-02-13T19:02:42.303Z,4.60
2018-02-13T19:05:09.799Z,4.50
2018-02-13T19:07:37.436Z,4.30
2018-02-13T19:10:04.985Z,4.10
2018-02-13T19:12:32.557Z,4.20
2018-02-13T19:15:00.115Z,4.10
2018-02-13T19:17:27.663Z,4.00
2018-02-13T19:19:55.222Z,4.00
2018-02-13T19:22:22.783Z,4.10
2018-02-13T19:24:50.340Z,4.20
2018-02-13T19:27:17.915Z,4.40
2018-02-13T19:29:45.438Z,4.50
2018-02-13T19:32:13.736Z,4.40
2018-02-13T19:34:41.305Z,4.40
2018-02-13T19:37:08.867Z,4.40
2018-02-13T19:39:36.407Z,4.50
2018-02-13T19:42:04.061Z,4.50
2018-02-13T19:44:32.439Z,4.40
2018-02-13T19:47:00.975Z,4.40
2018-02-13T19:49:28.626Z,4.40
2018-02-13T19:51:56.271Z,4.30
2018-02-13T19:54:24.040Z,4.30
2018-02-13T19:56:51.687Z,4.40
2018-02-13T19:59:19.331Z,4.40
2018-02-13T20:01:47.749Z,4.40
2018-02-13T20:04:15.551Z,4.40
2018-02-13T20:06:44.080Z,4.20
2018-02-13T20:09:11.867Z,4.20
2018-02-13T20:11:39.516Z,4.20
2018-02-13T20:14:07.291Z,4.20
2018-02-13T20:16:35.067Z,4.20
2018-02-13T20:19:02.789Z,4.10
2018-02-13T20:21:30.971Z,4.10
2018-02-13T20:23:58.697Z,4.00
2018-02-13T20:26:26.957Z,4.00
2018-02-13T20:28:54.448Z,4.00
2018-02-13T20:31:22.945Z,4.10
2018-02-13T20:33:50.483Z,4.10
2018-02-13T20:36:18.776Z,4.10
2018-02-13T20:38:46.203Z,4.10
2018-02-13T20:41:14.508Z,4.00
2018-02-13T20:43:42.185Z,4.00
2018-02-13T20:46:09.887Z,4.00
2018-02-13T20:48:37.697Z,4.00
2018-02-13T20:51:05.369Z,3.90
2018-02-13T20:53:33.008Z,3.90
2018-02-13T20:56:01.443Z,3.90
2018-02-13T20:58:29.211Z,3.90
2018-02-13T21:00:56.864Z,3.90
2018-02-13T21:03:24.520Z,3.80
2018-02-13T21:05:52.311Z,3.80
2018-02-13T21:08:20.075Z,3.90
2018-02-13T21:10:47.739Z,3.80
2018-02-13T21:13:15.399Z,3.90
2018-02-13T21:15:43.040Z,4.00
2018-02-13T21:18:10.743Z,3.80
2018-02-13T21:20:39.148Z,3.80
2018-02-13T21:23:06.796Z,3.70
2018-02-13T21:25:34.556Z,3.80
2018-02-13T21:28:02.195Z,3.90
2018-02-13T21:30:29.963Z,3.90
2018-02-13T21:32:58.386Z,3.80
2018-02-13T21:35:25.927Z,3.80
2018-02-13T21:37:53.492Z,3.70
2018-02-13T21:40:21.372Z,3.80
2018-02-13T21:42:49.019Z,3.70
2018-02-13T21:45:16.795Z,3.60
2018-02-13T21:47:44.343Z,3.70
2018-02-13T21:50:11.914Z,3.80
2018-02-13T21:52:39.473Z,3.80
2018-02-13T21:55:07.019Z,3.80
2018-02-13T21:57:34.463Z,3.80
2018-02-13T22:00:02.972Z,3.80
2018-02-13T22:02:31.183Z,3.80
2018-02-13T22:04:58.909Z,3.70
2018-02-13T22:07:26.467Z,3.80
2018-02-13T22:09:54.016Z,3.70
2018-02-13T22:12:21.791Z,3.60
2018-02-13T22:14:49.448Z,3.70
2018-02-13T22:17:17.111Z,3.70
2018-02-13T22:19:44.564Z,3.70
2018-02-13T22:22:12.335Z,3.60
2018-02-13T22:24:39.883Z,3.60
2018-02-13T22:27:07.439Z,3.50
2018-02-13T22:29:34.936Z,3.60
2018-02-13T22:32:02.459Z,3.50
2018-02-13T22:34:30.016Z,3.50
2018-02-13T22:36:57.587Z,3.50
2018-02-13T22:39:25.135Z,3.60
2018-02-13T22:41:52.691Z,3.50
2018-02-13T22:44:20.470Z,3.50
2018-02-13T22:46:48.234Z,3.50
2018-02-13T22:49:15.795Z,3.40
2018-02-13T22:51:43.338Z,3.30
2018-02-13T22:54:10.903Z,3.40
2018-02-13T22:56:38.471Z,3.50
2018-02-13T22:59:06.268Z,3.30
2018-02-13T23:01:33.898Z,3.30
2018-02-13T23:04:01.559Z,3.30
2018-02-13T23:06:29.107Z,3.30
2018-02-13T23:08:56.882Z,3.40
2018-02-13T23:11:24.538Z,3.40
2018-02-13T23:13:52.023Z,3.40
2018-02-13T23:16:19.480Z,3.30
2018-02-13T23:18:47.426Z,3.30
2018-02-13T23:21:15.190Z,3.20
2018-02-13T23:23:42.740Z,3.20
2018-02-13T23:26:10.255Z,3.20
2018-02-13T23:28:37.971Z,3.30
2018-02-13T23:31:05.435Z,3.30
2018-02-13T23:33:32.862Z,3.10
2018-02-13T23:36:00.431Z,3.20
2018-02-13T23:38:28.003Z,3.20
2018-02-13T23:40:55.562Z,3.20
2018-02-13T23:43:23.111Z,3.20
2018-02-13T23:45:50.679Z,3.10
2018-02-13T23:48:18.222Z,3.10
2018-02-13T23:50:45.727Z,3.10
2018-02-13T23:53:13.347Z,3.20
2018-02-13T23:55:41.123Z,3.10
2018-02-13T23:58:08.671Z,3.20
